createdAt,value
2018-06-24T00:01:28.793Z,55.90
2018-06-24T00:03:57.005Z,56.10
2018-06-24T00:06:25.188Z,56.20
2018-06-24T00:08:53.398Z,56.10
2018-06-24T00:11:21.610Z,56.20
2018-06-24T00:13:49.900Z,56.30
2018-06-24T00:16:18.088Z,56.30
2018-06-24T00:18:46.288Z,56.30
2018-06-24T00:21:14.484Z,56.40
2018-06-24T00:23:42.744Z,56.50
2018-06-24T00:26:10.964Z,56.60
2018-06-24T00:28:39.160Z,56.60
2018-06-24T00:31:07.374Z,56.50
2018-06-24T00:33:35.568Z,56.60
2018-06-24T00:36:03.805Z,56.60
2018-06-24T00:38:32.049Z,56.70
2018-06-24T00:41:00.270Z,56.70
2018-06-24T00:43:28.469Z,56.80
2018-06-24T00:45:56.660Z,56.80
2018-06-24T00:48:24.932Z,56.80
2018-06-24T00:50:53.188Z,57.00
2018-06-24T00:53:21.400Z,57.00
2018-06-24T00:55:49.624Z,57.10
2018-06-24T00:58:17.817Z,57.10
2018-06-24T01:00:46.089Z,57.10
2018-06-24T01:03:14.296Z,57.10
2018-06-24T01:05:42.496Z,57.10
2018-06-24T01:08:10.797Z,57.10
2018-06-24T01:10:39.028Z,57.30
2018-06-24T01:13:07.254Z,57.30
2018-06-24T01:15:35.465Z,57.40
2018-06-24T01:18:03.805Z,57.50
2018-06-24T01:20:32.024Z,57.50
2018-06-24T01:23:00.277Z,57.60
2018-06-24T01:25:28.486Z,57.50
2018-06-24T01:27:56.752Z,57.50
2018-06-24T01:30:25.000Z,57.60
2018-06-24T01:32:53.202Z,57.70
2018-06-24T01:35:21.468Z,57.80
2018-06-24T01:37:49.851Z,57.80
2018-06-24T01:40:18.032Z,57.80
2018-06-24T01:42:46.212Z,57.80
2018-06-24T01:45:14.429Z,57.90
2018-06-24T01:47:42.640Z,57.90
2018-06-24T01:50:10.833Z,58.00
2018-06-24T01:52:39.030Z,58.10
2018-06-24T01:55:07.231Z,58.10
2018-06-24T01:57:35.449Z,58.20
2018-06-24T02:00:03.708Z,58.20
2018-06-24T02:02:32.520Z,58.20
2018-06-24T02:05:00.720Z,58.20
2018-06-24T02:07:28.916Z,58.30
2018-06-24T02:09:57.105Z,58.30
2018-06-24T02:12:25.316Z,58.40
2018-06-24T02:17:21.471Z,58.60
2018-06-24T02:19:49.684Z,58.60
2018-06-24T02:22:17.948Z,58.50
2018-06-24T02:24:46.209Z,58.60
2018-06-24T02:27:14.432Z,58.70
2018-06-24T02:29:42.637Z,58.70
2018-06-24T02:32:10.829Z,58.70
2018-06-24T02:34:39.034Z,58.90
2018-06-24T02:37:07.237Z,58.90
2018-06-24T02:39:35.541Z,58.90
2018-06-24T02:42:03.844Z,58.90
2018-06-24T02:44:32.053Z,59.00
2018-06-24T02:47:00.264Z,59.00
2018-06-24T02:49:28.457Z,59.00
2018-06-24T02:51:56.675Z,59.00
2018-06-24T02:54:24.862Z,59.10
2018-06-24T02:56:53.048Z,59.10
2018-06-24T02:59:21.268Z,59.20
2018-06-24T03:01:49.478Z,59.20
2018-06-24T03:04:17.672Z,59.40
2018-06-24T03:06:45.868Z,59.40
2018-06-24T03:09:14.116Z,59.40
2018-06-24T03:11:42.422Z,59.50
2018-06-24T03:14:10.675Z,59.60
2018-06-24T03:16:38.880Z,59.60
2018-06-24T03:19:07.188Z,59.50
2018-06-24T03:21:35.412Z,59.60
2018-06-24T03:24:03.617Z,59.60
2018-06-24T03:26:31.816Z,59.60
2018-06-24T03:29:00.023Z,59.60
2018-06-24T03:31:28.201Z,59.70
2018-06-24T03:33:56.436Z,59.80
2018-06-24T03:36:24.636Z,59.80
2018-06-24T03:38:52.852Z,59.80
2018-06-24T03:41:21.058Z,59.90
2018-06-24T03:43:49.279Z,59.90
2018-06-24T03:46:17.496Z,59.90
2018-06-24T03:48:45.996Z,59.90
2018-06-24T03:51:14.210Z,59.90
2018-06-24T03:53:42.544Z,59.80
2018-06-24T03:56:11.289Z,59.70
2018-06-24T04:01:07.064Z,59.70
2018-06-24T04:03:35.252Z,59.70
2018-06-24T04:06:03.482Z,59.70
2018-06-24T04:08:31.698Z,59.70
2018-06-24T04:10:59.923Z,59.80
2018-06-24T04:13:28.112Z,59.90
2018-06-24T04:16:06.023Z,59.80
2018-06-24T04:18:42.021Z,59.80
2018-06-24T04:21:12.257Z,60.40
2018-06-24T04:23:41.173Z,59.80
2018-06-24T04:26:10.157Z,59.90
2018-06-24T04:28:38.632Z,59.90
2018-06-24T04:31:07.155Z,59.90
2018-06-24T04:33:35.600Z,59.90
2018-06-24T04:36:04.424Z,59.90
2018-06-24T04:38:32.680Z,59.90
2018-06-24T04:41:01.209Z,59.90
2018-06-24T04:43:29.628Z,59.90
2018-06-24T04:45:57.852Z,59.90
2018-06-24T04:48:26.108Z,60.00
2018-06-24T04:50:54.332Z,60.00
2018-06-24T04:53:22.720Z,60.00
2018-06-24T04:55:51.096Z,60.00
2018-06-24T04:58:19.333Z,60.00
2018-06-24T05:00:47.532Z,60.00
2018-06-24T05:03:15.760Z,60.00
2018-06-24T05:05:44.000Z,59.90
2018-06-24T05:08:12.202Z,60.00
2018-06-24T05:10:40.439Z,59.90
2018-06-24T05:13:08.721Z,60.00
2018-06-24T05:15:36.936Z,59.90
2018-06-24T05:18:05.678Z,60.00
2018-06-24T05:20:33.888Z,60.00
2018-06-24T05:23:02.105Z,60.00
2018-06-24T05:25:30.327Z,60.00
2018-06-24T05:27:58.549Z,60.10
2018-06-24T05:30:26.744Z,60.00
2018-06-24T05:32:54.950Z,60.00
2018-06-24T05:35:23.217Z,60.00
2018-06-24T05:37:51.445Z,60.00
2018-06-24T05:40:19.600Z,59.90
2018-06-24T05:42:47.821Z,59.80
2018-06-24T05:45:16.009Z,59.90
2018-06-24T05:47:44.244Z,59.80
2018-06-24T05:50:12.433Z,59.70
2018-06-24T05:52:40.633Z,59.70
2018-06-24T05:55:08.827Z,59.70
2018-06-24T05:57:37.025Z,59.60
2018-06-24T06:00:06.472Z,59.50
2018-06-24T06:02:34.693Z,59.50
2018-06-24T06:05:02.919Z,59.50
2018-06-24T06:07:31.134Z,59.40
2018-06-24T06:09:59.345Z,59.40
2018-06-24T06:12:27.580Z,59.40
2018-06-24T06:14:56.456Z,59.30
2018-06-24T06:17:24.640Z,59.30
2018-06-24T06:19:52.830Z,59.40
2018-06-24T06:22:21.045Z,59.40
2018-06-24T06:24:49.347Z,59.30
2018-06-24T06:27:17.532Z,59.20
2018-06-24T06:29:45.785Z,59.30
2018-06-24T06:32:13.992Z,59.30
2018-06-24T06:34:42.191Z,59.30
2018-06-24T06:37:10.457Z,59.20
2018-06-24T06:39:38.668Z,59.20
2018-06-24T06:42:07.033Z,59.10
2018-06-24T06:44:35.240Z,59.10
2018-06-24T06:47:03.464Z,58.90
2018-06-24T06:49:31.703Z,58.90
2018-06-24T06:51:59.908Z,58.80
2018-06-24T06:54:28.106Z,58.60
2018-06-24T06:56:56.439Z,58.50
2018-06-24T06:59:24.621Z,58.30
2018-06-24T07:01:52.808Z,58.20
2018-06-24T07:04:21.041Z,58.20
2018-06-24T07:06:49.260Z,58.30
2018-06-24T07:09:17.460Z,58.00
2018-06-24T07:11:45.712Z,58.00
2018-06-24T07:14:13.900Z,57.60
2018-06-24T07:16:42.088Z,57.10
2018-06-24T07:19:10.280Z,57.00
2018-06-24T07:21:38.500Z,56.90
2018-06-24T07:24:06.740Z,56.60
2018-06-24T07:26:34.956Z,56.30
2018-06-24T07:29:03.149Z,55.80
2018-06-24T07:31:31.377Z,55.60
2018-06-24T07:33:59.677Z,55.50
2018-06-24T07:36:27.891Z,55.40
2018-06-24T07:38:56.092Z,55.10
2018-06-24T07:41:24.800Z,54.90
2018-06-24T07:43:52.992Z,54.60
2018-06-24T07:46:21.241Z,55.00
2018-06-24T07:48:49.463Z,54.30
2018-06-24T07:51:17.888Z,54.00
2018-06-24T07:53:46.068Z,53.90
2018-06-24T07:56:14.265Z,53.60
2018-06-24T07:58:42.597Z,53.30
2018-06-24T08:01:10.973Z,53.00
2018-06-24T08:03:39.174Z,52.60
2018-06-24T08:06:07.373Z,52.50
2018-06-24T08:08:35.621Z,52.10
2018-06-24T08:11:03.860Z,52.00
2018-06-24T08:16:00.107Z,51.80
2018-06-24T08:18:28.316Z,51.70
2018-06-24T08:20:56.480Z,51.90
2018-06-24T08:23:24.700Z,51.90
2018-06-24T08:25:52.905Z,51.90
2018-06-24T08:28:21.093Z,51.80
2018-06-24T08:30:49.276Z,51.90
2018-06-24T08:33:17.533Z,51.80
2018-06-24T08:35:45.826Z,51.50
2018-06-24T08:38:14.030Z,51.60
2018-06-24T08:40:42.208Z,51.40
2018-06-24T08:43:10.428Z,51.50
2018-06-24T08:45:38.608Z,51.50
2018-06-24T08:48:06.912Z,51.00
2018-06-24T08:50:35.121Z,51.00
2018-06-24T08:53:03.448Z,51.20
2018-06-24T08:55:31.677Z,51.20
2018-06-24T08:57:59.920Z,50.90
2018-06-24T09:00:28.713Z,50.90
2018-06-24T09:02:56.860Z,50.80
2018-06-24T09:05:25.089Z,50.70
2018-06-24T09:07:53.320Z,50.50
2018-06-24T09:10:21.513Z,50.30
2018-06-24T09:12:50.064Z,49.90
2018-06-24T09:15:18.257Z,49.70
2018-06-24T09:17:46.495Z,49.20
2018-06-24T09:20:14.694Z,49.00
2018-06-24T09:22:42.876Z,49.00
2018-06-24T09:25:11.064Z,48.80
2018-06-24T09:27:39.350Z,48.80
2018-06-24T09:30:07.544Z,48.90
2018-06-24T09:32:35.736Z,48.90
2018-06-24T09:35:03.986Z,49.00
2018-06-24T09:37:32.300Z,49.00
2018-06-24T09:40:00.512Z,49.00
2018-06-24T09:42:29.510Z,49.00
2018-06-24T09:44:57.768Z,48.90
2018-06-24T09:47:26.015Z,48.90
2018-06-24T09:52:22.172Z,48.90
2018-06-24T09:54:50.389Z,48.70
2018-06-24T09:57:18.564Z,48.60
2018-06-24T09:59:46.749Z,48.40
2018-06-24T10:02:14.937Z,48.50
2018-06-24T10:04:43.173Z,48.60
2018-06-24T10:07:11.352Z,48.60
2018-06-24T10:09:39.560Z,48.50
2018-06-24T10:12:08.028Z,48.50
2018-06-24T10:14:36.223Z,48.50
2018-06-24T10:17:04.460Z,48.60
2018-06-24T10:19:32.649Z,48.80
2018-06-24T10:22:00.840Z,48.70
2018-06-24T10:24:29.024Z,48.40
2018-06-24T10:26:57.236Z,48.20
2018-06-24T10:29:25.496Z,48.30
2018-06-24T10:31:53.641Z,48.30
2018-06-24T10:34:21.824Z,48.10
2018-06-24T10:39:17.980Z,48.10
2018-06-24T10:41:46.237Z,48.10
2018-06-24T10:44:14.406Z,48.10
2018-06-24T10:46:42.589Z,47.90
2018-06-24T10:49:10.780Z,47.60
2018-06-24T10:51:38.976Z,47.50
2018-06-24T10:54:07.165Z,47.20
2018-06-24T10:56:35.388Z,47.20
2018-06-24T11:01:31.568Z,47.30
2018-06-24T11:04:00.398Z,47.10
2018-06-24T11:06:28.587Z,46.90
2018-06-24T11:08:56.780Z,46.70
2018-06-24T11:11:24.973Z,46.60
2018-06-24T11:13:53.156Z,46.30
2018-06-24T11:16:21.378Z,46.30
2018-06-24T11:18:49.568Z,46.20
2018-06-24T11:21:17.752Z,46.20
2018-06-24T11:23:45.997Z,46.10
2018-06-24T11:26:14.167Z,46.00
2018-06-24T11:28:42.358Z,46.10
2018-06-24T11:31:10.545Z,45.90
2018-06-24T11:33:38.741Z,45.80
2018-06-24T11:36:06.918Z,45.70
2018-06-24T11:38:35.131Z,45.50
2018-06-24T11:41:03.354Z,45.40
2018-06-24T11:43:31.567Z,45.30
2018-06-24T11:45:59.782Z,45.40
2018-06-24T11:48:28.042Z,45.40
2018-06-24T11:50:56.251Z,45.60
2018-06-24T11:53:24.449Z,45.70
2018-06-24T11:55:52.632Z,45.80
2018-06-24T11:58:20.840Z,45.80
2018-06-24T12:00:49.016Z,45.80
2018-06-24T12:03:17.204Z,45.90
2018-06-24T12:05:45.413Z,45.90
2018-06-24T12:08:13.801Z,45.90
2018-06-24T12:10:42.059Z,46.10
2018-06-24T12:13:11.020Z,46.40
2018-06-24T12:15:39.218Z,46.60
2018-06-24T12:18:07.946Z,47.00
2018-06-24T12:20:36.121Z,47.20
2018-06-24T12:23:04.356Z,47.00
2018-06-24T12:25:32.559Z,47.00
2018-06-24T12:28:00.732Z,46.90
2018-06-24T12:30:28.936Z,46.70
2018-06-24T12:32:57.116Z,46.70
2018-06-24T12:35:25.384Z,46.70
2018-06-24T12:37:53.576Z,46.50
2018-06-24T12:40:27.313Z,46.10
2018-06-24T12:42:55.522Z,45.80
2018-06-24T12:45:23.712Z,45.90
2018-06-24T12:47:51.908Z,45.90
2018-06-24T12:50:20.128Z,45.70
2018-06-24T12:52:48.393Z,45.40
2018-06-24T12:55:16.729Z,45.30
2018-06-24T12:57:44.900Z,45.00
2018-06-24T13:00:13.462Z,44.80
2018-06-24T13:05:09.397Z,44.80
2018-06-24T13:07:37.844Z,44.80
2018-06-24T13:10:06.606Z,44.70
2018-06-24T13:12:34.785Z,44.60
2018-06-24T13:15:03.033Z,44.60
2018-06-24T13:17:31.228Z,44.30
2018-06-24T13:19:59.417Z,44.20
2018-06-24T13:22:27.796Z,44.00
2018-06-24T13:24:55.965Z,43.80
2018-06-24T13:27:24.217Z,43.60
2018-06-24T13:29:52.383Z,43.50
2018-06-24T13:32:20.572Z,43.50
2018-06-24T13:34:48.744Z,43.50
2018-06-24T13:37:16.968Z,43.50
2018-06-24T13:39:45.148Z,43.50
2018-06-24T13:42:13.408Z,43.50
2018-06-24T13:44:41.525Z,43.60
2018-06-24T13:47:09.717Z,43.70
2018-06-24T13:49:38.048Z,43.70
2018-06-24T13:52:06.249Z,43.50
2018-06-24T13:54:34.420Z,43.50
2018-06-24T13:57:02.653Z,43.50
2018-06-24T13:59:30.824Z,43.70
2018-06-24T14:01:59.024Z,43.90
2018-06-24T14:04:27.204Z,43.80
2018-06-24T14:06:55.396Z,43.50
2018-06-24T14:09:23.580Z,43.10
2018-06-24T14:11:51.821Z,43.10
2018-06-24T14:14:20.024Z,43.10
2018-06-24T14:16:48.217Z,43.20
2018-06-24T14:19:16.402Z,43.10
2018-06-24T14:21:44.580Z,43.20
2018-06-24T14:24:12.824Z,43.20
2018-06-24T14:26:41.018Z,43.00
2018-06-24T14:29:09.213Z,42.70
2018-06-24T14:31:37.398Z,42.50
2018-06-24T14:34:05.793Z,42.60
2018-06-24T14:36:34.023Z,42.70
2018-06-24T14:39:02.172Z,42.50
2018-06-24T14:41:30.348Z,42.60
2018-06-24T14:43:58.564Z,42.60
2018-06-24T14:46:26.740Z,42.90
2018-06-24T14:48:54.936Z,43.00
2018-06-24T14:51:23.120Z,42.80
2018-06-24T14:53:51.303Z,42.50
2018-06-24T14:56:19.489Z,42.30
2018-06-24T14:58:47.672Z,42.10
2018-06-24T15:01:15.864Z,42.10
2018-06-24T15:03:44.240Z,42.10
2018-06-24T15:06:12.476Z,42.10
2018-06-24T15:08:40.677Z,42.30
2018-06-24T15:11:08.860Z,42.50
2018-06-24T15:13:37.054Z,42.40
2018-06-24T15:16:05.257Z,42.30
2018-06-24T15:18:33.457Z,42.40
2018-06-24T15:21:01.636Z,42.50
2018-06-24T15:23:29.812Z,42.50
2018-06-24T15:25:57.998Z,42.80
2018-06-24T15:28:26.180Z,42.80
2018-06-24T15:30:54.380Z,43.00
2018-06-24T15:33:22.560Z,43.30
2018-06-24T15:35:50.741Z,43.70
2018-06-24T15:38:18.952Z,44.00
2018-06-24T15:40:47.148Z,44.20
2018-06-24T15:43:15.352Z,44.50
2018-06-24T15:45:43.737Z,44.70
2018-06-24T15:48:11.900Z,44.90
2018-06-24T15:50:40.132Z,45.20
2018-06-24T15:53:08.313Z,45.30
2018-06-24T15:55:36.530Z,45.40
2018-06-24T15:58:04.776Z,45.60
2018-06-24T16:00:32.989Z,45.80
2018-06-24T16:03:01.223Z,46.00
2018-06-24T16:05:29.424Z,46.10
2018-06-24T16:07:57.605Z,46.40
2018-06-24T16:10:25.849Z,46.60
2018-06-24T16:12:54.028Z,46.70
2018-06-24T16:15:22.244Z,46.90
2018-06-24T16:17:50.432Z,47.00
2018-06-24T16:20:18.625Z,46.90
2018-06-24T16:22:46.864Z,47.00
2018-06-24T16:25:15.044Z,47.00
2018-06-24T16:27:43.236Z,46.90
2018-06-24T16:30:11.462Z,47.00
2018-06-24T16:32:39.648Z,47.10
2018-06-24T16:35:07.828Z,47.20
2018-06-24T16:37:36.289Z,47.20
2018-06-24T16:40:04.864Z,47.20
2018-06-24T16:42:33.204Z,47.20
2018-06-24T16:45:01.944Z,47.30
2018-06-24T16:47:30.124Z,47.20
2018-06-24T16:49:58.316Z,47.30
2018-06-24T16:52:26.733Z,47.40
2018-06-24T16:54:55.121Z,47.40
2018-06-24T16:57:23.324Z,47.60
2018-06-24T16:59:51.498Z,47.60
2018-06-24T17:02:19.684Z,47.60
2018-06-24T17:04:47.872Z,47.60
2018-06-24T17:07:16.073Z,47.70
2018-06-24T17:09:44.820Z,47.80
2018-06-24T17:12:13.037Z,47.90
2018-06-24T17:14:41.222Z,47.90
2018-06-24T17:17:09.480Z,48.00
2018-06-24T17:19:37.632Z,48.10
2018-06-24T17:22:05.808Z,48.20
2018-06-24T17:24:34.002Z,48.30
2018-06-24T17:27:02.227Z,48.40
2018-06-24T17:29:30.822Z,48.50
2018-06-24T17:31:58.612Z,48.50
2018-06-24T17:34:26.812Z,48.50
2018-06-24T17:36:55.078Z,48.30
2018-06-24T17:39:23.288Z,48.10
2018-06-24T17:41:51.460Z,47.80
2018-06-24T17:44:19.660Z,47.70
2018-06-24T17:46:47.836Z,47.70
2018-06-24T17:49:16.029Z,47.60
2018-06-24T17:51:44.212Z,47.60
2018-06-24T17:56:40.537Z,47.70
2018-06-24T17:59:08.735Z,47.60
2018-06-24T18:01:36.908Z,47.70
2018-06-24T18:04:05.240Z,47.80
2018-06-24T18:06:33.485Z,47.80
2018-06-24T18:09:01.684Z,47.80
2018-06-24T18:11:29.889Z,47.90
2018-06-24T18:13:58.109Z,48.00
2018-06-24T18:16:26.300Z,48.00
2018-06-24T18:18:54.497Z,48.10
2018-06-24T18:21:22.684Z,48.20
2018-06-24T18:23:50.909Z,48.30
2018-06-24T18:26:19.118Z,48.30
2018-06-24T18:28:47.300Z,48.30
2018-06-24T18:31:15.536Z,48.30
2018-06-24T18:33:43.712Z,48.30
2018-06-24T18:36:11.944Z,48.20
2018-06-24T18:38:40.121Z,48.20
2018-06-24T18:41:08.462Z,48.10
2018-06-24T18:43:36.640Z,48.10
2018-06-24T18:46:05.050Z,48.10
2018-06-24T18:48:33.334Z,48.10
2018-06-24T18:51:01.545Z,48.10
2018-06-24T18:53:29.740Z,48.00
2018-06-24T18:55:57.960Z,48.00
2018-06-24T18:58:26.374Z,48.00
2018-06-24T19:00:54.568Z,48.00
2018-06-24T19:03:22.807Z,47.90
2018-06-24T19:05:51.025Z,47.80
2018-06-24T19:08:19.196Z,47.70
2018-06-24T19:10:47.408Z,47.70
2018-06-24T19:13:15.576Z,47.60
2018-06-24T19:15:43.777Z,47.60
2018-06-24T19:18:11.949Z,47.60
2018-06-24T19:20:40.157Z,47.50
2018-06-24T19:23:08.344Z,47.40
2018-06-24T19:25:36.532Z,47.30
2018-06-24T19:28:04.924Z,47.30
2018-06-24T19:30:33.133Z,47.90
2018-06-24T19:33:01.336Z,47.30
2018-06-24T19:35:29.520Z,47.20
2018-06-24T19:37:57.721Z,47.20
2018-06-24T19:40:25.943Z,47.20
2018-06-24T19:42:54.148Z,47.10
2018-06-24T19:45:22.326Z,47.10
2018-06-24T19:47:50.780Z,47.10
2018-06-24T19:50:18.957Z,47.10
2018-06-24T19:52:47.288Z,47.10
2018-06-24T19:55:16.341Z,47.20
2018-06-24T19:57:44.529Z,47.20
2018-06-24T20:00:12.705Z,47.10
2018-06-24T20:02:40.900Z,47.20
2018-06-24T20:07:37.045Z,47.30
2018-06-24T20:12:33.267Z,47.20
2018-06-24T20:15:01.457Z,47.20
2018-06-24T20:17:29.675Z,47.20
2018-06-24T20:19:57.849Z,47.30
2018-06-24T20:22:26.056Z,47.20
2018-06-24T20:24:54.378Z,47.30
2018-06-24T20:27:22.573Z,47.30
2018-06-24T20:29:50.772Z,47.50
2018-06-24T20:32:18.945Z,47.60
2018-06-24T20:34:47.194Z,47.60
2018-06-24T20:37:15.340Z,47.70
2018-06-24T20:39:43.531Z,47.80
2018-06-24T20:42:11.720Z,47.90
2018-06-24T20:44:39.928Z,47.90
2018-06-24T20:47:08.116Z,48.00
2018-06-24T20:49:36.304Z,48.10
2018-06-24T20:52:04.508Z,48.20
2018-06-24T20:54:32.744Z,48.20
2018-06-24T20:57:00.917Z,48.30
2018-06-24T20:59:29.131Z,48.30
2018-06-24T21:01:57.304Z,48.30
2018-06-24T21:04:25.506Z,48.50
2018-06-24T21:06:53.697Z,48.50
2018-06-24T21:09:21.912Z,48.60
2018-06-24T21:11:50.139Z,48.70
2018-06-24T21:14:18.329Z,48.80
2018-06-24T21:16:46.524Z,48.90
2018-06-24T21:19:14.700Z,49.00
2018-06-24T21:21:42.919Z,49.00
2018-06-24T21:24:11.104Z,49.10
2018-06-24T21:26:39.315Z,49.20
2018-06-24T21:31:35.474Z,49.30
2018-06-24T21:36:31.692Z,49.50
2018-06-24T21:38:59.876Z,49.50
2018-06-24T21:41:28.073Z,49.60
2018-06-24T21:43:56.253Z,49.60
2018-06-24T21:46:24.442Z,49.70
2018-06-24T21:48:52.616Z,49.80
2018-06-24T21:51:20.800Z,49.90
2018-06-24T21:53:48.996Z,50.00
2018-06-24T21:56:17.200Z,50.00
2018-06-24T21:58:45.372Z,50.20
2018-06-24T22:01:13.593Z,50.20
2018-06-24T22:03:41.776Z,50.20
2018-06-24T22:06:09.971Z,50.40
2018-06-24T22:08:38.189Z,50.50
2018-06-24T22:11:06.584Z,50.60
2018-06-24T22:13:34.776Z,50.60
2018-06-24T22:16:03.000Z,50.80
2018-06-24T22:18:31.193Z,50.90
2018-06-24T22:21:01.424Z,50.90
2018-06-24T22:23:29.684Z,50.80
2018-06-24T22:25:57.868Z,51.00
2018-06-24T22:28:26.204Z,51.10
2018-06-24T22:30:54.421Z,51.10
2018-06-24T22:33:22.620Z,51.20
2018-06-24T22:35:50.792Z,51.20
2018-06-24T22:38:18.984Z,51.40
2018-06-24T22:40:47.204Z,51.40
2018-06-24T22:43:15.390Z,51.40
2018-06-24T22:45:43.780Z,51.50
2018-06-24T22:48:11.969Z,51.60
2018-06-24T22:50:40.173Z,51.70
2018-06-24T22:53:08.393Z,51.60
2018-06-24T22:55:36.573Z,51.80
2018-06-24T22:58:04.800Z,51.90
2018-06-24T23:00:32.997Z,51.80
2018-06-24T23:03:02.295Z,51.80
2018-06-24T23:05:30.517Z,51.90
2018-06-24T23:07:58.696Z,52.50
2018-06-24T23:10:27.049Z,52.00
2018-06-24T23:12:55.244Z,52.00
2018-06-24T23:15:23.416Z,52.10
2018-06-24T23:17:51.596Z,52.20
2018-06-24T23:20:19.776Z,52.30
2018-06-24T23:22:48.035Z,52.40
2018-06-24T23:25:16.217Z,52.50
2018-06-24T23:27:44.673Z,52.60
2018-06-24T23:30:13.072Z,52.60
2018-06-24T23:32:41.257Z,52.70
2018-06-24T23:35:09.453Z,52.60
2018-06-24T23:37:37.654Z,52.70
2018-06-24T23:40:05.884Z,52.60
2018-06-24T23:42:34.065Z,52.80
2018-06-24T23:45:02.328Z,52.80
2018-06-24T23:47:30.500Z,52.90
2018-06-24T23:49:58.700Z,52.90
2018-06-24T23:52:26.894Z,52.90
2018-06-24T23:54:55.100Z,53.00
2018-06-24T23:57:23.268Z,53.00
2018-06-24T23:59:51.480Z,53.10
